createdAt,value
2023-02-28T00:03:30.827Z,100925.28
2023-02-28T00:08:34.450Z,100940.09
2023-02-28T00:13:39.956Z,100941.09
2023-02-28T00:18:45.428Z,100943.72
2023-02-28T00:23:49.477Z,100938.38
2023-02-28T00:28:54.311Z,100946.13
2023-02-28T00:33:59.577Z,100960.22
2023-02-28T00:39:03.180Z,100977.78
2023-02-28T00:44:07.005Z,100972.84
2023-02-28T00:49:12.282Z,100990.25
2023-02-28T00:54:15.907Z,100998.97
2023-02-28T00:59:19.988Z,101003.22
2023-02-28T01:04:25.314Z,101026.59
2023-02-28T01:09:28.948Z,101008.44
2023-02-28T01:14:32.620Z,101003.41
2023-02-28T01:19:37.999Z,100996.47
2023-02-28T01:24:41.654Z,101011.13
2023-02-28T01:29:45.305Z,101028.56
2023-02-28T01:34:50.564Z,101053.69
2023-02-28T01:39:54.181Z,101050.25
2023-02-28T01:45:04.342Z,101050.16
2023-02-28T01:50:14.497Z,101036.34
2023-02-28T01:55:20.459Z,101030.38
2023-02-28T02:00:26.880Z,101027.97
2023-02-28T02:05:32.299Z,101031.00
2023-02-28T02:10:38.117Z,101053.84
2023-02-28T02:15:50.480Z,101071.25
2023-02-28T02:21:24.281Z,101077.31
2023-02-28T02:26:51.094Z,101068.66
2023-02-28T02:32:06.985Z,101090.25
2023-02-28T02:37:29.330Z,101095.59
2023-02-28T02:42:41.604Z,101088.72
2023-02-28T02:47:47.050Z,101090.69
2023-02-28T02:52:57.408Z,101096.69
2023-02-28T02:58:03.689Z,101120.06
2023-02-28T03:03:07.609Z,101110.56
2023-02-28T03:08:12.940Z,101106.34
2023-02-28T03:13:39.026Z,101102.06
2023-02-28T03:18:52.256Z,101102.94
2023-02-28T03:24:05.483Z,101105.59
2023-02-28T03:29:21.930Z,101109.06
2023-02-28T03:34:31.309Z,101109.09
2023-02-28T03:39:41.603Z,101111.69
2023-02-28T03:44:49.556Z,101123.81
2023-02-28T03:49:59.477Z,101118.63
2023-02-28T03:55:08.880Z,101129.00
2023-02-28T04:00:18.374Z,101126.41
2023-02-28T04:05:22.714Z,101136.75
2023-02-28T04:10:28.466Z,101138.50
2023-02-28T04:15:32.214Z,101141.94
2023-02-28T04:20:35.877Z,101137.63
2023-02-28T04:25:41.160Z,101136.78
2023-02-28T04:30:44.856Z,101136.78
2023-02-28T04:35:48.554Z,101141.09
2023-02-28T04:40:53.897Z,101145.41
2023-02-28T04:45:58.057Z,101136.75
2023-02-28T04:51:03.516Z,101130.69
2023-02-28T04:56:11.079Z,101152.31
2023-02-28T05:01:24.909Z,101144.53
2023-02-28T05:06:30.239Z,101167.00
2023-02-28T05:11:36.296Z,101182.53
2023-02-28T05:16:40.150Z,101201.56
2023-02-28T05:21:51.328Z,101201.56
2023-02-28T05:26:56.886Z,101223.13
2023-02-28T05:32:00.586Z,101247.34
2023-02-28T05:37:04.279Z,101235.31
2023-02-28T05:42:10.639Z,101222.34
2023-02-28T05:47:14.254Z,101217.16
2023-02-28T05:52:17.934Z,101218.03
2023-02-28T05:57:24.836Z,101224.97
2023-02-28T06:02:28.581Z,101218.00
2023-02-28T06:07:32.224Z,101217.97
2023-02-28T06:12:38.122Z,101215.38
2023-02-28T06:17:42.426Z,101224.84
2023-02-28T06:22:46.056Z,101234.31
2023-02-28T06:27:51.343Z,101240.34
2023-02-28T06:32:55.307Z,101256.75
2023-02-28T06:37:59.960Z,101263.66
2023-02-28T06:43:05.410Z,101262.84
2023-02-28T06:48:09.039Z,101249.94
2023-02-28T06:53:12.696Z,101255.09
2023-02-28T06:58:18.930Z,101254.19
2023-02-28T07:03:22.590Z,101249.81
2023-02-28T07:08:26.706Z,101259.25
2023-02-28T07:13:33.178Z,101260.03
2023-02-28T07:18:36.274Z,101253.03
2023-02-28T07:23:40.647Z,101258.97
2023-02-28T07:28:47.045Z,101247.69
2023-02-28T07:33:50.719Z,101258.91
2023-02-28T07:38:54.472Z,101258.91
2023-02-28T07:43:59.776Z,101254.53
2023-02-28T07:49:03.819Z,101256.19
2023-02-28T07:54:07.674Z,101258.69
2023-02-28T07:59:13.562Z,101255.19
2023-02-28T08:04:17.225Z,101258.63
2023-02-28T08:09:21.122Z,101258.63
2023-02-28T08:14:26.434Z,101265.41
2023-02-28T08:19:30.107Z,101258.25
2023-02-28T08:24:33.739Z,101267.88
2023-02-28T08:29:39.711Z,101273.88
2023-02-28T08:34:43.313Z,101279.00
2023-02-28T08:39:46.971Z,101278.16
2023-02-28T08:44:53.231Z,101275.47
2023-02-28T08:49:56.828Z,101270.41
2023-02-28T08:55:00.757Z,101266.03
2023-02-28T09:00:07.007Z,101274.53
2023-02-28T09:05:11.161Z,101266.72
2023-02-28T09:10:14.806Z,101255.41
2023-02-28T09:15:21.047Z,101249.25
2023-02-28T09:20:24.729Z,101246.47
2023-02-28T09:25:28.445Z,101249.13
2023-02-28T09:30:33.847Z,101253.56
2023-02-28T09:35:37.505Z,101244.19
2023-02-28T09:40:52.584Z,101240.66
2023-02-28T09:46:04.478Z,101251.00
2023-02-28T09:51:17.466Z,101232.78
2023-02-28T09:56:26.089Z,101225.88
2023-02-28T10:01:40.933Z,101225.03
2023-02-28T10:06:48.726Z,101215.50
2023-02-28T10:11:56.107Z,101215.63
2023-02-28T10:17:06.253Z,101214.59
2023-02-28T10:22:15.600Z,101204.19
2023-02-28T10:27:21.139Z,101202.38
2023-02-28T10:32:28.699Z,101200.69
2023-02-28T10:37:32.302Z,101200.69
2023-02-28T10:42:35.991Z,101189.59
2023-02-28T10:47:51.520Z,101182.06
2023-02-28T10:52:56.093Z,101167.53
2023-02-28T10:57:59.774Z,101156.44
2023-02-28T11:03:31.334Z,101155.56
2023-02-28T11:08:35.584Z,101162.44
2023-02-28T11:13:39.347Z,101159.84
2023-02-28T11:18:49.820Z,101154.69
2023-02-28T11:23:58.184Z,101157.28
2023-02-28T11:29:12.054Z,101136.66
2023-02-28T11:34:29.972Z,101134.03
2023-02-28T11:39:34.855Z,101123.81
2023-02-28T11:44:50.612Z,101124.69
2023-02-28T11:50:13.301Z,101104.97
2023-02-28T11:55:21.481Z,101102.41
2023-02-28T12:00:40.760Z,101112.78
2023-02-28T12:05:48.582Z,101107.78
2023-02-28T12:11:06.712Z,101097.56
2023-02-28T12:16:39.486Z,101095.00
2023-02-28T12:22:13.884Z,101089.03
2023-02-28T12:27:23.435Z,101082.16
2023-02-28T12:32:34.650Z,101062.41
2023-02-28T12:37:43.190Z,101064.94
2023-02-28T12:42:51.122Z,101066.75
2023-02-28T12:47:59.168Z,101052.09
2023-02-28T12:53:08.773Z,101066.78
2023-02-28T12:58:20.267Z,101056.41
2023-02-28T13:03:46.805Z,101044.31
2023-02-28T13:09:06.824Z,101052.94
2023-02-28T13:14:23.904Z,101049.50
2023-02-28T13:19:30.719Z,101043.44
2023-02-28T13:24:52.007Z,101046.88
2023-02-28T13:29:55.892Z,101045.13
2023-02-28T13:35:44.591Z,101033.03
2023-02-28T13:40:49.959Z,101020.91
2023-02-28T13:46:12.201Z,101019.16
2023-02-28T13:51:41.715Z,101020.88
2023-02-28T13:56:53.501Z,101017.44
2023-02-28T14:02:19.113Z,101007.03
2023-02-28T14:07:25.697Z,100985.38
2023-02-28T14:13:02.486Z,100991.44
2023-02-28T14:18:15.209Z,100992.34
2023-02-28T14:23:33.121Z,100958.56
2023-02-28T14:28:51.765Z,100956.91
2023-02-28T14:34:15.719Z,100960.31
2023-02-28T14:39:23.872Z,100950.81
2023-02-28T14:44:29.869Z,100925.69
2023-02-28T14:49:36.816Z,100930.84
2023-02-28T14:54:41.198Z,100916.09
2023-02-28T14:59:46.519Z,100916.03
2023-02-28T15:04:58.422Z,100906.47
2023-02-28T15:10:16.089Z,100922.91
2023-02-28T15:15:31.702Z,100912.63
2023-02-28T15:20:45.960Z,100910.91
2023-02-28T15:25:50.160Z,100922.16
2023-02-28T15:30:58.862Z,100926.38
2023-02-28T15:36:15.171Z,100935.84
2023-02-28T15:41:27.967Z,100939.28
2023-02-28T15:46:33.535Z,100936.59
2023-02-28T15:51:39.670Z,100934.81
2023-02-28T15:56:47.143Z,100932.13
2023-02-28T16:02:13.703Z,100939.88
2023-02-28T16:07:17.468Z,100937.25
2023-02-28T16:12:22.610Z,100939.84
2023-02-28T16:17:29.671Z,100942.59
2023-02-28T16:22:33.283Z,100924.41
2023-02-28T16:27:39.326Z,100923.41
2023-02-28T16:32:44.664Z,100935.44
2023-02-28T16:37:48.313Z,100929.38
2023-02-28T16:42:54.754Z,100938.03
2023-02-28T16:47:59.327Z,100944.03
2023-02-28T16:53:02.956Z,100955.16
2023-02-28T16:58:06.840Z,100954.38
2023-02-28T17:03:32.008Z,100943.84
2023-02-28T17:08:36.596Z,100949.84
2023-02-28T17:13:40.245Z,100952.34
2023-02-28T17:18:45.549Z,100944.41
2023-02-28T17:23:49.179Z,100940.03
2023-02-28T17:28:55.509Z,100940.78
2023-02-28T17:34:00.869Z,100948.31
2023-02-28T17:39:05.416Z,100940.28
2023-02-28T17:44:09.110Z,100942.47
2023-02-28T17:49:14.867Z,100945.59
2023-02-28T17:54:19.316Z,100931.03
2023-02-28T17:59:22.995Z,100937.78
2023-02-28T18:04:28.422Z,100939.28
2023-02-28T18:09:32.047Z,100935.38
2023-02-28T18:14:35.692Z,100945.56
2023-02-28T18:19:41.152Z,100946.00
2023-02-28T18:24:44.985Z,100949.38
2023-02-28T18:29:48.646Z,100942.22
2023-02-28T18:34:54.082Z,100934.78
2023-02-28T18:39:58.146Z,100927.44
2023-02-28T18:45:01.824Z,100941.13
2023-02-28T18:50:07.621Z,100933.94
2023-02-28T18:55:11.677Z,100943.47
2023-02-28T19:00:17.640Z,100938.44
2023-02-28T19:05:23.120Z,100934.50
2023-02-28T19:10:26.778Z,100918.44
2023-02-28T19:15:30.467Z,100920.00
2023-02-28T19:20:35.806Z,100927.72
2023-02-28T19:25:42.481Z,100909.81
2023-02-28T19:30:48.433Z,100898.19
2023-02-28T19:35:53.975Z,100895.69
2023-02-28T19:41:04.556Z,100893.03
2023-02-28T19:46:08.852Z,100896.56
2023-02-28T19:51:15.534Z,100885.25
2023-02-28T19:56:19.252Z,100882.31
2023-02-28T20:01:23.001Z,100882.66
2023-02-28T20:06:29.358Z,100861.91
2023-02-28T20:11:33.179Z,100861.03
2023-02-28T20:16:36.874Z,100846.81
2023-02-28T20:21:42.156Z,100844.66
2023-02-28T20:26:45.888Z,100832.66
2023-02-28T20:31:49.674Z,100825.88
2023-02-28T20:36:55.031Z,100815.66
2023-02-28T20:41:58.651Z,100830.16
2023-02-28T20:47:02.270Z,100815.56
2023-02-28T20:52:07.633Z,100801.63
2023-02-28T20:57:11.272Z,100805.34
2023-02-28T21:02:17.610Z,100783.03
2023-02-28T21:07:22.920Z,100782.72
2023-02-28T21:12:26.640Z,100786.56
2023-02-28T21:17:30.483Z,100765.91
2023-02-28T21:22:36.733Z,100743.50
2023-02-28T21:27:40.337Z,100758.56
2023-02-28T21:32:43.947Z,100748.31
2023-02-28T21:37:49.243Z,100731.47
2023-02-28T21:42:53.041Z,100731.06
2023-02-28T21:47:56.687Z,100714.53
2023-02-28T21:53:02.229Z,100719.38
2023-02-28T21:58:05.890Z,100713.75
2023-02-28T22:03:09.816Z,100699.81
2023-02-28T22:08:15.139Z,100694.56
2023-02-28T22:13:18.805Z,100673.19
2023-02-28T22:18:22.477Z,100673.06
2023-02-28T22:23:27.952Z,100655.63
2023-02-28T22:28:31.928Z,100642.06
2023-02-28T22:33:35.558Z,100642.78
2023-02-28T22:38:40.954Z,100636.56
2023-02-28T22:43:44.766Z,100626.47
2023-02-28T22:48:48.590Z,100632.50
2023-02-28T22:53:55.657Z,100616.13
2023-02-28T22:59:00.214Z,100614.75
2023-02-28T23:04:04.661Z,100623.56
2023-02-28T23:09:11.578Z,100619.91
2023-02-28T23:14:17.343Z,100623.25
2023-02-28T23:19:23.639Z,100620.63
2023-02-28T23:24:30.743Z,100629.66
2023-02-28T23:29:35.048Z,100628.19
2023-02-28T23:34:38.691Z,100618.16
2023-02-28T23:39:43.947Z,100624.31
2023-02-28T23:44:47.556Z,100619.19
2023-02-28T23:49:51.180Z,100594.66
2023-02-28T23:54:56.571Z,100606.19
